5WI5 weather

Haymeadow Airport
Merrill, Wisconsin, United States

Public forecast

Using degrees Fahrenheit for public forecast. Weather courtesy of forecast.io.

Closest aviation weather report (METAR) to Haymeadow Airport

Closest report is Merrill Municipal Airport, 10.4 nm (19.3 km) WSW. Retrieved 2020/02/22 21:35 UTC (0 seconds ago):

KRRL 222135Z AUTO 23008KT 10SM CLR 06/M04 A2994 RMK AO2 T00551039 TSNO

Closest aviation forecast (TAF) to Haymeadow Airport

Closest forecast is Rhinelander Oneida County Airport, 21.4 nm (39.7 km) N. Retrieved 2020/02/22 18:27 UTC (3 hours ago):

TAF KRHI 221723Z 2218/2318 22007KT P6SM SKC FM230600 22006KT 4SM BR SCT004 TEMPO 2310/2314 1SM BR BKN004 FM231400 23007KT 3SM BR BKN005 WS020/28035KT FM231600 24009G16KT 6SM BR SCT007 WS020/27035KT